sensor_id;sensor_type;location;lat;lon;timestamp;pressure;altitude;pressure_sealevel;temperature;humidity
49055;BME280;35405;52.344;14.530;2023-03-14T06:43:29;98293.81;;;10.01;100.00
49055;BME280;35405;52.344;14.530;2023-03-14T06:45:57;98292.44;;;10.07;100.00
49055;BME280;35405;52.344;14.530;2023-03-14T06:48:25;98294.53;;;10.14;100.00
49055;BME280;35405;52.344;14.530;2023-03-14T06:50:50;98307.78;;;10.15;100.00
49055;BME280;35405;52.344;14.530;2023-03-14T06:53:30;98299.63;;;10.15;100.00
49055;BME280;35405;52.344;14.530;2023-03-14T06:56:02;98310.00;;;10.25;100.00
49055;BME280;35405;52.344;14.530;2023-03-14T06:58:30;98321.97;;;10.37;100.00
49055;BME280;35405;52.344;14.530;2023-03-14T07:00:55;98325.53;;;10.53;100.00
49055;BME280;35405;52.344;14.530;2023-03-14T07:03:21;98328.25;;;10.69;100.00
49055;BME280;35405;52.344;14.530;2023-03-14T07:05:47;98320.53;;;10.87;100.00
49055;BME280;35405;52.344;14.530;2023-03-14T07:08:12;98327.25;;;11.09;100.00
49055;BME280;35405;52.344;14.530;2023-03-14T07:10:37;98328.94;;;11.13;100.00
49055;BME280;35405;52.344;14.530;2023-03-14T07:13:09;98322.53;;;11.06;100.00
49055;BME280;35405;52.344;14.530;2023-03-14T07:15:34;98332.19;;;11.03;100.00
49055;BME280;35405;52.344;14.530;2023-03-14T07:17:59;98326.41;;;11.05;100.00
49055;BME280;35405;52.344;14.530;2023-03-14T07:20:24;98332.38;;;11.10;100.00
49055;BME280;35405;52.344;14.530;2023-03-14T07:22:53;98332.97;;;11.19;100.00
49055;BME280;35405;52.344;14.530;2023-03-14T07:25:19;98328.81;;;11.26;100.00
49055;BME280;35405;52.344;14.530;2023-03-14T07:27:44;98332.06;;;11.31;100.00
49055;BME280;35405;52.344;14.530;2023-03-14T07:33:05;98341.28;;;11.27;100.00
49055;BME280;35405;52.344;14.530;2023-03-14T07:35:34;98338.63;;;11.30;100.00
49055;BME280;35405;52.344;14.530;2023-03-14T07:37:59;98339.16;;;11.36;100.00
49055;BME280;35405;52.344;14.530;2023-03-14T07:40:24;98342.31;;;11.38;100.00
49055;BME280;35405;52.344;14.530;2023-03-14T07:42:49;98349.41;;;11.42;100.00
49055;BME280;35405;52.344;14.530;2023-03-14T07:45:15;98343.25;;;11.45;100.00
49055;BME280;35405;52.344;14.530;2023-03-14T07:47:40;98335.38;;;11.40;100.00
49055;BME280;35405;52.344;14.530;2023-03-14T07:50:06;98334.94;;;11.38;100.00
49055;BME280;35405;52.344;14.530;2023-03-14T07:52:31;98337.81;;;11.45;100.00
49055;BME280;35405;52.344;14.530;2023-03-14T07:54:57;98341.84;;;11.52;100.00
49055;BME280;35405;52.344;14.530;2023-03-14T07:57:22;98348.16;;;11.56;100.00
49055;BME280;35405;52.344;14.530;2023-03-14T07:59:48;98332.34;;;11.61;100.00
49055;BME280;35405;52.344;14.530;2023-03-14T08:02:14;98329.69;;;11.65;100.00
49055;BME280;35405;52.344;14.530;2023-03-14T08:04:39;98338.72;;;11.69;100.00
49055;BME280;35405;52.344;14.530;2023-03-14T08:07:05;98335.72;;;11.74;100.00
49055;BME280;35405;52.344;14.530;2023-03-14T08:09:30;98337.88;;;11.84;100.00
49055;BME280;35405;52.344;14.530;2023-03-14T08:11:55;98349.38;;;11.94;100.00
49055;BME280;35405;52.344;14.530;2023-03-14T08:14:20;98351.44;;;12.00;100.00
49055;BME280;35405;52.344;14.530;2023-03-14T08:16:48;98355.84;;;12.05;100.00
49055;BME280;35405;52.344;14.530;2023-03-14T08:19:13;98353.97;;;12.09;100.00
49055;BME280;35405;52.344;14.530;2023-03-14T08:21:39;98353.97;;;12.09;100.00
49055;BME280;35405;52.344;14.530;2023-03-14T08:24:04;98357.19;;;12.15;100.00
49055;BME280;35405;52.344;14.530;2023-03-14T08:26:29;98358.78;;;12.16;100.00
49055;BME280;35405;52.344;14.530;2023-03-14T08:28:54;98348.38;;;12.21;100.00
49055;BME280;35405;52.344;14.530;2023-03-14T08:31:19;98337.25;;;12.30;100.00
49055;BME280;35405;52.344;14.530;2023-03-14T08:33:45;98343.63;;;12.38;100.00
49055;BME280;35405;52.344;14.530;2023-03-14T08:36:10;98346.19;;;12.50;100.00
49055;BME280;35405;52.344;14.530;2023-03-14T08:38:35;98332.13;;;12.48;100.00
49055;BME280;35405;52.344;14.530;2023-03-14T08:41:01;98343.09;;;12.51;100.00
49055;BME280;35405;52.344;14.530;2023-03-14T08:43:27;98328.69;;;12.51;100.00
49055;BME280;35405;52.344;14.530;2023-03-14T08:45:52;98331.34;;;12.47;100.00
49055;BME280;35405;52.344;14.530;2023-03-14T08:48:17;98327.41;;;12.45;100.00
49055;BME280;35405;52.344;14.530;2023-03-14T08:50:44;98325.94;;;12.51;100.00
49055;BME280;35405;52.344;14.530;2023-03-14T08:53:09;98326.81;;;12.55;100.00
49055;BME280;35405;52.344;14.530;2023-03-14T08:55:34;98335.06;;;12.58;100.00
49055;BME280;35405;52.344;14.530;2023-03-14T08:58:00;98331.94;;;12.60;100.00
49055;BME280;35405;52.344;14.530;2023-03-14T09:00:25;98342.56;;;12.65;100.00
49055;BME280;35405;52.344;14.530;2023-03-14T09:02:50;98341.81;;;12.88;100.00
49055;BME280;35405;52.344;14.530;2023-03-14T09:05:15;98336.56;;;13.02;100.00
49055;BME280;35405;52.344;14.530;2023-03-14T09:07:40;98351.06;;;13.06;100.00
49055;BME280;35405;52.344;14.530;2023-03-14T09:10:06;98346.81;;;13.09;100.00
49055;BME280;35405;52.344;14.530;2023-03-14T09:12:32;98353.47;;;13.11;100.00
49055;BME280;35405;52.344;14.530;2023-03-14T09:14:57;98357.66;;;13.28;100.00
49055;BME280;35405;52.344;14.530;2023-03-14T09:17:22;98360.97;;;13.41;100.00
49055;BME280;35405;52.344;14.530;2023-03-14T09:19:47;98355.47;;;13.37;100.00
49055;BME280;35405;52.344;14.530;2023-03-14T09:22:13;98341.47;;;13.16;100.00
49055;BME280;35405;52.344;14.530;2023-03-14T09:24:38;98356.78;;;12.97;100.00
49055;BME280;35405;52.344;14.530;2023-03-14T09:27:04;98363.91;;;12.82;100.00
49055;BME280;35405;52.344;14.530;2023-03-14T09:29:30;98365.94;;;12.66;100.00
49055;BME280;35405;52.344;14.530;2023-03-14T09:31:55;98362.75;;;12.61;100.00
49055;BME280;35405;52.344;14.530;2023-03-14T09:34:21;98362.38;;;12.62;100.00
49055;BME280;35405;52.344;14.530;2023-03-14T09:36:47;98373.38;;;12.89;100.00
49055;BME280;35405;52.344;14.530;2023-03-14T09:39:12;98371.84;;;13.14;100.00
49055;BME280;35405;52.344;14.530;2023-03-14T09:41:38;98363.44;;;13.00;100.00
49055;BME280;35405;52.344;14.530;2023-03-14T09:44:05;98367.50;;;12.87;100.00
49055;BME280;35405;52.344;14.530;2023-03-14T09:46:31;98360.28;;;13.21;100.00
49055;BME280;35405;52.344;14.530;2023-03-14T09:48:58;98366.66;;;13.55;100.00
49055;BME280;35405;52.344;14.530;2023-03-14T09:51:24;98368.13;;;13.76;100.00
49055;BME280;35405;52.344;14.530;2023-03-14T09:53:49;98370.59;;;13.84;100.00
49055;BME280;35405;52.344;14.530;2023-03-14T09:56:19;98365.94;;;14.18;100.00
49055;BME280;35405;52.344;14.530;2023-03-14T09:58:47;98377.72;;;14.56;100.00
49055;BME280;35405;52.344;14.530;2023-03-14T10:01:14;98380.47;;;14.56;100.00
49055;BME280;35405;52.344;14.530;2023-03-14T10:03:40;98386.72;;;14.27;100.00
49055;BME280;35405;52.344;14.530;2023-03-14T10:06:11;98388.78;;;14.03;100.00
49055;BME280;35405;52.344;14.530;2023-03-14T10:08:39;98391.63;;;13.84;100.00
49055;BME280;35405;52.344;14.530;2023-03-14T10:11:04;98383.59;;;13.68;100.00
49055;BME280;35405;52.344;14.530;2023-03-14T10:13:29;98382.41;;;13.65;100.00
49055;BME280;35405;52.344;14.530;2023-03-14T10:15:55;98384.41;;;13.68;100.00
49055;BME280;35405;52.344;14.530;2023-03-14T10:18:23;98387.84;;;13.92;100.00
49055;BME280;35405;52.344;14.530;2023-03-14T10:20:49;98381.13;;;14.16;100.00
49055;BME280;35405;52.344;14.530;2023-03-14T10:25:41;98397.41;;;14.39;100.00
49055;BME280;35405;52.344;14.530;2023-03-14T10:28:26;98402.56;;;14.44;100.00
49055;BME280;35405;52.344;14.530;2023-03-14T10:30:51;98403.72;;;14.43;100.00
49055;BME280;35405;52.344;14.530;2023-03-14T10:33:20;98404.69;;;14.58;100.00
49055;BME280;35405;52.344;14.530;2023-03-14T10:35:51;98406.13;;;14.48;100.00
49055;BME280;35405;52.344;14.530;2023-03-14T10:38:17;98405.13;;;14.30;100.00
49055;BME280;35405;52.344;14.530;2023-03-14T10:40:49;98393.84;;;14.05;100.00
49055;BME280;35405;52.344;14.530;2023-03-14T10:43:35;98400.13;;;14.05;100.00
49055;BME280;35405;52.344;14.530;2023-03-14T10:46:16;98396.25;;;13.80;100.00
49055;BME280;35405;52.344;14.530;2023-03-14T10:48:42;98397.47;;;13.82;100.00
49055;BME280;35405;52.344;14.530;2023-03-14T10:56:21;98395.84;;;14.72;100.00
49055;BME280;35405;52.344;14.530;2023-03-14T10:58:47;98400.78;;;14.96;100.00
49055;BME280;35405;52.344;14.530;2023-03-14T11:04:06;98411.31;;;14.23;100.00
49055;BME280;35405;52.344;14.530;2023-03-14T11:09:27;98414.38;;;13.91;100.00
49055;BME280;35405;52.344;14.530;2023-03-14T11:11:56;98400.75;;;13.95;100.00
49055;BME280;35405;52.344;14.530;2023-03-14T11:14:29;98396.78;;;13.89;100.00
49055;BME280;35405;52.344;14.530;2023-03-14T11:16:59;98402.41;;;13.73;100.00
49055;BME280;35405;52.344;14.530;2023-03-14T11:19:38;98400.34;;;13.63;100.00
49055;BME280;35405;52.344;14.530;2023-03-14T11:22:20;98395.38;;;13.45;100.00
49055;BME280;35405;52.344;14.530;2023-03-14T11:32:54;98394.06;;;13.36;100.00
49055;BME280;35405;52.344;14.530;2023-03-14T11:35:34;98405.88;;;13.43;100.00
49055;BME280;35405;52.344;14.530;2023-03-14T11:40:36;98393.09;;;13.78;100.00
49055;BME280;35405;52.344;14.530;2023-03-14T11:43:11;98393.31;;;13.92;100.00
49055;BME280;35405;52.344;14.530;2023-03-14T11:45:38;98386.28;;;14.21;100.00
49055;BME280;35405;52.344;14.530;2023-03-14T11:48:23;98399.22;;;14.58;100.00
49055;BME280;35405;52.344;14.530;2023-03-14T11:50:51;98396.06;;;14.56;100.00
49055;BME280;35405;52.344;14.530;2023-03-14T11:53:22;98390.25;;;14.61;100.00
49055;BME280;35405;52.344;14.530;2023-03-14T11:55:50;98386.59;;;14.50;100.00
49055;BME280;35405;52.344;14.530;2023-03-14T11:58:29;98381.91;;;14.16;100.00
49055;BME280;35405;52.344;14.530;2023-03-14T12:00:56;98395.41;;;14.02;100.00
49055;BME280;35405;52.344;14.530;2023-03-14T12:06:09;98388.34;;;14.01;100.00
49055;BME280;35405;52.344;14.530;2023-03-14T12:08:45;98383.97;;;13.93;100.00
49055;BME280;35405;52.344;14.530;2023-03-14T12:11:17;98380.25;;;13.78;100.00
49055;BME280;35405;52.344;14.530;2023-03-14T12:13:50;98376.41;;;13.83;100.00
49055;BME280;35405;52.344;14.530;2023-03-14T12:16:24;98383.44;;;13.84;100.00
49055;BME280;35405;52.344;14.530;2023-03-14T12:18:50;98376.88;;;14.18;100.00
49055;BME280;35405;52.344;14.530;2023-03-14T12:21:16;98379.78;;;14.33;100.00
49055;BME280;35405;52.344;14.530;2023-03-14T12:23:49;98378.19;;;14.32;100.00
49055;BME280;35405;52.344;14.530;2023-03-14T12:26:17;98378.63;;;14.37;100.00
49055;BME280;35405;52.344;14.530;2023-03-14T12:28:44;98364.88;;;14.64;100.00
49055;BME280;35405;52.344;14.530;2023-03-14T12:39:21;98359.38;;;14.60;100.00
49055;BME280;35405;52.344;14.530;2023-03-14T12:41:53;98353.09;;;14.56;100.00
49055;BME280;35405;52.344;14.530;2023-03-14T12:46:54;98346.38;;;14.50;100.00
49055;BME280;35405;52.344;14.530;2023-03-14T12:49:19;98348.56;;;14.71;100.00
49055;BME280;35405;52.344;14.530;2023-03-14T12:51:45;98359.66;;;14.89;100.00
49055;BME280;35405;52.344;14.530;2023-03-14T12:56:53;98357.59;;;14.08;100.00
49055;BME280;35405;52.344;14.530;2023-03-14T12:59:33;98369.19;;;13.98;100.00
49055;BME280;35405;52.344;14.530;2023-03-14T13:06:59;98353.94;;;14.27;100.00
49055;BME280;35405;52.344;14.530;2023-03-14T13:11:54;98353.50;;;14.25;100.00
49055;BME280;35405;52.344;14.530;2023-03-14T13:14:19;98348.72;;;14.14;100.00
49055;BME280;35405;52.344;14.530;2023-03-14T13:16:46;98345.38;;;13.98;100.00
49055;BME280;35405;52.344;14.530;2023-03-14T13:19:22;98339.25;;;14.08;100.00
49055;BME280;35405;52.344;14.530;2023-03-14T13:21:49;98343.88;;;14.38;100.00
49055;BME280;35405;52.344;14.530;2023-03-14T13:24:22;98336.13;;;14.77;100.00
49055;BME280;35405;52.344;14.530;2023-03-14T13:26:48;98337.28;;;14.80;100.00
49055;BME280;35405;52.344;14.530;2023-03-14T13:29:18;98330.59;;;14.36;100.00
49055;BME280;35405;52.344;14.530;2023-03-14T13:31:47;98329.31;;;14.27;100.00
49055;BME280;35405;52.344;14.530;2023-03-14T13:34:13;98331.84;;;14.46;100.00
49055;BME280;35405;52.344;14.530;2023-03-14T13:36:38;98327.34;;;14.61;100.00
49055;BME280;35405;52.344;14.530;2023-03-14T13:39:06;98322.41;;;14.40;100.00
49055;BME280;35405;52.344;14.530;2023-03-14T13:41:36;98326.28;;;14.35;100.00
49055;BME280;35405;52.344;14.530;2023-03-14T13:44:04;98319.34;;;14.45;100.00
49055;BME280;35405;52.344;14.530;2023-03-14T13:46:30;98323.25;;;14.10;100.00
49055;BME280;35405;52.344;14.530;2023-03-14T13:48:58;98321.50;;;13.95;100.00
49055;BME280;35405;52.344;14.530;2023-03-14T13:51:26;98328.66;;;14.03;100.00
49055;BME280;35405;52.344;14.530;2023-03-14T13:53:57;98332.63;;;14.09;100.00
49055;BME280;35405;52.344;14.530;2023-03-14T13:56:24;98319.53;;;13.92;100.00
49055;BME280;35405;52.344;14.530;2023-03-14T13:58:50;98325.25;;;13.53;100.00
49055;BME280;35405;52.344;14.530;2023-03-14T14:01:19;98312.16;;;13.36;100.00
49055;BME280;35405;52.344;14.530;2023-03-14T14:03:47;98321.22;;;13.43;100.00
49055;BME280;35405;52.344;14.530;2023-03-14T14:08:52;98311.38;;;13.65;100.00
49055;BME280;35405;52.344;14.530;2023-03-14T14:13:58;98284.19;;;14.06;100.00
49055;BME280;35405;52.344;14.530;2023-03-14T14:16:24;98297.50;;;13.78;100.00
49055;BME280;35405;52.344;14.530;2023-03-14T14:18:51;98298.13;;;13.37;100.00
49055;BME280;35405;52.344;14.530;2023-03-14T14:21:17;98308.81;;;13.23;100.00
49055;BME280;35405;52.344;14.530;2023-03-14T14:23:42;98310.47;;;13.27;100.00
49055;BME280;35405;52.344;14.530;2023-03-14T14:26:07;98309.53;;;13.20;100.00
49055;BME280;35405;52.344;14.530;2023-03-14T14:28:34;98307.81;;;13.31;100.00
49055;BME280;35405;52.344;14.530;2023-03-14T14:33:44;98313.03;;;13.43;100.00
49055;BME280;35405;52.344;14.530;2023-03-14T14:36:20;98319.53;;;13.35;100.00
49055;BME280;35405;52.344;14.530;2023-03-14T14:38:59;98308.78;;;13.46;100.00
49055;BME280;35405;52.344;14.530;2023-03-14T14:41:34;98313.03;;;13.43;100.00
49055;BME280;35405;52.344;14.530;2023-03-14T14:44:01;98313.34;;;13.38;100.00
49055;BME280;35405;52.344;14.530;2023-03-14T14:46:30;98313.06;;;13.20;100.00
49055;BME280;35405;52.344;14.530;2023-03-14T14:48:57;98306.28;;;13.34;100.00
49055;BME280;35405;52.344;14.530;2023-03-14T14:51:26;98303.38;;;13.49;100.00
49055;BME280;35405;52.344;14.530;2023-03-14T14:54:02;98298.22;;;13.44;100.00
49055;BME280;35405;52.344;14.530;2023-03-14T14:56:28;98296.84;;;13.58;100.00
49055;BME280;35405;52.344;14.530;2023-03-14T14:58:57;98298.22;;;13.44;100.00
49055;BME280;35405;52.344;14.530;2023-03-14T15:01:24;98292.75;;;13.44;100.00
49055;BME280;35405;52.344;14.530;2023-03-14T15:03:50;98289.03;;;13.56;100.00
49055;BME280;35405;52.344;14.530;2023-03-14T15:06:16;98282.69;;;13.22;100.00
49055;BME280;35405;52.344;14.530;2023-03-14T15:08:48;98282.13;;;12.86;100.00
49055;BME280;35405;52.344;14.530;2023-03-14T15:11:15;98284.63;;;12.72;100.00
49055;BME280;35405;52.344;14.530;2023-03-14T15:13:41;98289.34;;;12.75;100.00
49055;BME280;35405;52.344;14.530;2023-03-14T15:16:10;98282.09;;;13.09;100.00
49055;BME280;35405;52.344;14.530;2023-03-14T15:18:36;98291.34;;;13.54;100.00
49055;BME280;35405;52.344;14.530;2023-03-14T15:21:01;98284.13;;;13.39;100.00
49055;BME280;35405;52.344;14.530;2023-03-14T15:23:26;98292.13;;;13.01;100.00
49055;BME280;35405;52.344;14.530;2023-03-14T15:25:51;98292.22;;;12.82;100.00
49055;BME280;35405;52.344;14.530;2023-03-14T15:28:21;98283.50;;;12.73;100.00
49055;BME280;35405;52.344;14.530;2023-03-14T15:30:48;98275.97;;;12.66;100.00
49055;BME280;35405;52.344;14.530;2023-03-14T15:33:13;98273.00;;;12.75;100.00
49055;BME280;35405;52.344;14.530;2023-03-14T15:35:38;98283.41;;;12.69;100.00
49055;BME280;35405;52.344;14.530;2023-03-14T15:38:04;98282.03;;;12.56;100.00
49055;BME280;35405;52.344;14.530;2023-03-14T15:40:29;98277.50;;;12.41;100.00
49055;BME280;35405;52.344;14.530;2023-03-14T15:42:55;98279.22;;;12.29;100.00
49055;BME280;35405;52.344;14.530;2023-03-14T15:45:20;98267.72;;;12.17;100.00
49055;BME280;35405;52.344;14.530;2023-03-14T15:47:45;98278.41;;;12.06;100.00
49055;BME280;35405;52.344;14.530;2023-03-14T15:50:10;98278.00;;;12.04;100.00
49055;BME280;35405;52.344;14.530;2023-03-14T15:52:36;98282.22;;;12.01;100.00
49055;BME280;35405;52.344;14.530;2023-03-14T15:55:01;98275.09;;;11.97;100.00
49055;BME280;35405;52.344;14.530;2023-03-14T15:57:26;98274.97;;;11.89;100.00
49055;BME280;35405;52.344;14.530;2023-03-14T15:59:52;98281.78;;;11.80;100.00
49055;BME280;35405;52.344;14.530;2023-03-14T16:02:17;98281.91;;;11.67;100.00
49055;BME280;35405;52.344;14.530;2023-03-14T16:04:42;98288.34;;;11.59;100.00
49055;BME280;35405;52.344;14.530;2023-03-14T16:07:08;98295.88;;;11.47;100.00
49055;BME280;35405;52.344;14.530;2023-03-14T16:09:33;98285.97;;;11.38;100.00
49055;BME280;35405;52.344;14.530;2023-03-14T16:11:59;98288.69;;;11.38;100.00
49055;BME280;35405;52.344;14.530;2023-03-14T16:14:24;98299.63;;;11.42;100.00
49055;BME280;35405;52.344;14.530;2023-03-14T16:16:49;98293.13;;;11.47;100.00
49055;BME280;35405;52.344;14.530;2023-03-14T16:19:16;98302.09;;;11.47;100.00
49055;BME280;35405;52.344;14.530;2023-03-14T16:21:41;98298.72;;;11.54;100.00
49055;BME280;35405;52.344;14.530;2023-03-14T16:24:07;98305.91;;;11.62;100.00
49055;BME280;35405;52.344;14.530;2023-03-14T16:26:35;98289.19;;;11.63;100.00
49055;BME280;35405;52.344;14.530;2023-03-14T16:29:01;98307.19;;;11.68;100.00
49055;BME280;35405;52.344;14.530;2023-03-14T16:31:29;98314.22;;;11.69;100.00
49055;BME280;35405;52.344;14.530;2023-03-14T16:33:54;98311.16;;;11.71;100.00
49055;BME280;35405;52.344;14.530;2023-03-14T16:36:19;98306.81;;;11.70;100.00
49055;BME280;35405;52.344;14.530;2023-03-14T16:38:45;98306.03;;;11.69;100.00
49055;BME280;35405;52.344;14.530;2023-03-14T16:43:35;98378.34;;;11.66;100.00
49055;BME280;35405;52.344;14.530;2023-03-14T16:46:04;98437.31;;;11.27;100.00
49055;BME280;35405;52.344;14.530;2023-03-14T16:48:30;98478.59;;;9.80;100.00
49055;BME280;35405;52.344;14.530;2023-03-14T16:50:55;98490.88;;;7.40;100.00
49055;BME280;35405;52.344;14.530;2023-03-14T16:53:20;98423.91;;;5.33;100.00
49055;BME280;35405;52.344;14.530;2023-03-14T16:55:46;98424.00;;;4.57;100.00
49055;BME280;35405;52.344;14.530;2023-03-14T16:58:11;98438.22;;;4.49;100.00
49055;BME280;35405;52.344;14.530;2023-03-14T17:00:37;98461.78;;;4.43;100.00
49055;BME280;35405;52.344;14.530;2023-03-14T17:03:02;98461.78;;;4.43;100.00
49055;BME280;35405;52.344;14.530;2023-03-14T17:05:28;98493.94;;;4.26;100.00
49055;BME280;35405;52.344;14.530;2023-03-14T17:07:53;98521.69;;;3.99;100.00
49055;BME280;35405;52.344;14.530;2023-03-14T17:10:18;98547.69;;;3.76;100.00
49055;BME280;35405;52.344;14.530;2023-03-14T17:12:44;98584.22;;;3.49;100.00
49055;BME280;35405;52.344;14.530;2023-03-14T17:15:09;67307.06;;;-147.10;100.00
49055;BME280;35405;52.344;14.530;2023-03-14T17:17:35;67307.06;;;-147.10;100.00
49055;BME280;35405;52.344;14.530;2023-03-14T17:20:00;98584.22;;;3.49;100.00
49055;BME280;35405;52.344;14.530;2023-03-14T17:22:26;98672.34;;;1.91;100.00
49055;BME280;35405;52.344;14.530;2023-03-14T17:24:51;98696.66;;;1.70;100.00
49055;BME280;35405;52.344;14.530;2023-03-14T17:27:16;98723.03;;;1.53;100.00
49055;BME280;35405;52.344;14.530;2023-03-14T17:29:44;98728.97;;;1.50;100.00
49055;BME280;35405;52.344;14.530;2023-03-14T17:32:09;98760.28;;;1.54;100.00
49055;BME280;35405;52.344;14.530;2023-03-14T17:34:34;98777.16;;;1.55;100.00
49055;BME280;35405;52.344;14.530;2023-03-14T17:36:59;98800.84;;;1.37;100.00
49055;BME280;35405;52.344;14.530;2023-03-14T17:39:24;98813.91;;;0.95;100.00
49055;BME280;35405;52.344;14.530;2023-03-14T17:41:50;98833.50;;;0.80;100.00
49055;BME280;35405;52.344;14.530;2023-03-14T17:44:15;98836.41;;;0.88;100.00
49055;BME280;35405;52.344;14.530;2023-03-14T17:46:40;98843.09;;;0.91;100.00
49055;BME280;35405;52.344;14.530;2023-03-14T17:49:05;98871.50;;;0.72;100.00
49055;BME280;35405;52.344;14.530;2023-03-14T17:51:30;98880.66;;;0.55;100.00
49055;BME280;35405;52.344;14.530;2023-03-14T17:53:56;98883.56;;;0.54;100.00
49055;BME280;35405;52.344;14.530;2023-03-14T17:56:21;98930.16;;;0.42;100.00
49055;BME280;35405;52.344;14.530;2023-03-14T17:58:46;98936.78;;;0.04;100.00
49055;BME280;35405;52.344;14.530;2023-03-14T18:01:12;98961.31;;;-0.25;100.00
49055;BME280;35405;52.344;14.530;2023-03-14T18:03:38;98967.13;;;-0.43;100.00
49055;BME280;35405;52.344;14.530;2023-03-14T18:06:04;98984.72;;;-0.52;100.00
49055;BME280;35405;52.344;14.530;2023-03-14T18:08:29;98996.63;;;-0.70;100.00
49055;BME280;35405;52.344;14.530;2023-03-14T18:10:55;99000.09;;;-0.70;100.00
49055;BME280;35405;52.344;14.530;2023-03-14T18:13:20;99025.47;;;-0.67;100.00
49055;BME280;35405;52.344;14.530;2023-03-14T18:15:45;99032.41;;;-0.71;100.00
49055;BME280;35405;52.344;14.530;2023-03-14T18:18:10;99027.63;;;-0.69;100.00
49055;BME280;35405;52.344;14.530;2023-03-14T18:20:35;99035.38;;;-0.67;100.00
49055;BME280;35405;52.344;14.530;2023-03-14T18:23:01;99047.13;;;-0.63;100.00
49055;BME280;35405;52.344;14.530;2023-03-14T18:25:26;99055.69;;;-0.61;100.00
49055;BME280;35405;52.344;14.530;2023-03-14T18:27:51;99061.59;;;-0.54;100.00
49055;BME280;35405;52.344;14.530;2023-03-14T18:30:16;99068.84;;;-0.50;100.00
49055;BME280;35405;52.344;14.530;2023-03-14T18:32:44;99065.66;;;-0.47;100.00
49055;BME280;35405;52.344;14.530;2023-03-14T18:35:09;99068.88;;;-0.44;100.00
49055;BME280;35405;52.344;14.530;2023-03-14T18:37:34;99079.31;;;-0.38;100.00
49055;BME280;35405;52.344;14.530;2023-03-14T18:39:59;99076.16;;;-0.30;100.00
49055;BME280;35405;52.344;14.530;2023-03-14T18:42:24;99077.00;;;-0.19;100.00
49055;BME280;35405;52.344;14.530;2023-03-14T18:44:50;99102.97;;;-0.14;100.00
49055;BME280;35405;52.344;14.530;2023-03-14T18:47:15;99111.25;;;-0.11;100.00
49055;BME280;35405;52.344;14.530;2023-03-14T18:49:40;99112.63;;;0.02;100.00
49055;BME280;35405;52.344;14.530;2023-03-14T18:52:05;99123.09;;;0.09;100.00
49055;BME280;35405;52.344;14.530;2023-03-14T18:54:31;99138.38;;;0.18;100.00
49055;BME280;35405;52.344;14.530;2023-03-14T18:56:56;99140.78;;;0.20;100.00
49055;BME280;35405;52.344;14.530;2023-03-14T18:59:24;99149.88;;;0.24;100.00
49055;BME280;35405;52.344;14.530;2023-03-14T19:01:49;99162.22;;;0.30;100.00
49055;BME280;35405;52.344;14.530;2023-03-14T19:04:14;99159.56;;;0.35;100.00
49055;BME280;35405;52.344;14.530;2023-03-14T19:06:39;99156.88;;;0.35;100.00
49055;BME280;35405;52.344;14.530;2023-03-14T19:09:05;99158.50;;;0.36;100.00
49055;BME280;35405;52.344;14.530;2023-03-14T19:11:30;99161.69;;;0.38;100.00
49055;BME280;35405;52.344;14.530;2023-03-14T19:13:56;99183.69;;;0.45;100.00
49055;BME280;35405;52.344;14.530;2023-03-14T19:16:21;99193.53;;;0.45;100.00
49055;BME280;35405;52.344;14.530;2023-03-14T19:18:48;99207.22;;;0.54;100.00
49055;BME280;35405;52.344;14.530;2023-03-14T19:21:13;99206.47;;;0.63;100.00
49055;BME280;35405;52.344;14.530;2023-03-14T19:23:40;99217.72;;;0.60;100.00
49055;BME280;35405;52.344;14.530;2023-03-14T19:26:05;99216.38;;;0.68;100.00
49055;BME280;35405;52.344;14.530;2023-03-14T19:28:30;99222.00;;;0.72;100.00
49055;BME280;35405;52.344;14.530;2023-03-14T19:30:56;99226.03;;;0.74;100.00
49055;BME280;35405;52.344;14.530;2023-03-14T19:33:21;99236.22;;;0.77;100.00
49055;BME280;35405;52.344;14.530;2023-03-14T19:35:46;99226.59;;;0.81;100.00
49055;BME280;35405;52.344;14.530;2023-03-14T19:38:12;99233.56;;;0.82;100.00
49055;BME280;35405;52.344;14.530;2023-03-14T19:40:39;99236.25;;;0.87;100.00
49055;BME280;35405;52.344;14.530;2023-03-14T19:43:04;99246.97;;;0.93;100.00
49055;BME280;35405;52.344;14.530;2023-03-14T19:45:30;99250.16;;;0.89;100.00
49055;BME280;35405;52.344;14.530;2023-03-14T19:48:00;99267.31;;;0.88;100.00
49055;BME280;35405;52.344;14.530;2023-03-14T19:50:25;99274.81;;;0.91;100.00
49055;BME280;35405;52.344;14.530;2023-03-14T19:52:51;99288.75;;;0.94;100.00
49055;BME280;35405;52.344;14.530;2023-03-14T19:55:16;99298.09;;;0.96;100.00
49055;BME280;35405;52.344;14.530;2023-03-14T19:57:41;99298.13;;;1.01;100.00
49055;BME280;35405;52.344;14.530;2023-03-14T20:00:07;99308.56;;;1.03;100.00
49055;BME280;35405;52.344;14.530;2023-03-14T20:02:40;99305.06;;;0.97;100.00
49055;BME280;35405;52.344;14.530;2023-03-14T20:05:06;99314.44;;;0.95;100.00
49055;BME280;35405;52.344;14.530;2023-03-14T20:07:31;99321.09;;;0.92;100.00
49055;BME280;35405;52.344;14.530;2023-03-14T20:09:56;99335.56;;;0.91;100.00
49055;BME280;35405;52.344;14.530;2023-03-14T20:12:21;99348.94;;;0.91;100.00
49055;BME280;35405;52.344;14.530;2023-03-14T20:14:46;99360.44;;;0.91;100.00
49055;BME280;35405;52.344;14.530;2023-03-14T20:17:11;99362.59;;;0.95;100.00
49055;BME280;35405;52.344;14.530;2023-03-14T20:19:38;99366.63;;;0.97;100.00
49055;BME280;35405;52.344;14.530;2023-03-14T20:22:03;99372.00;;;0.97;100.00
49055;BME280;35405;52.344;14.530;2023-03-14T20:24:28;99388.34;;;1.01;100.00